Time;durP1;ratioP1;P1;durP2;ratioP2;P2;SDS_P1;SDS_P2;PMS_P1;PMS_P2;Temp;Humidity;BMP_temperature;BMP_pressure;BME280_temperature;BME280_humidity;BME280_pressure;Samples;Min_cycle;Max_cycle;Signal;HPM_P1;HPM_P2
2023/05/26 00:00:40;;;;;;;6.90;2.50;;;;;;;;;;5007309;28;20315;-59
2023/05/26 00:03:07;;;;;;;2.07;1.97;;;;;;;;;;5008878;28;20550;-59
2023/05/26 00:05:35;;;;;;;2.00;1.87;;;;;;;;;;5008017;28;20212;-59
2023/05/26 00:08:02;;;;;;;6.40;2.10;;;;;;;;;;5003449;28;20280;-60
2023/05/26 00:10:29;;;;;;;2.83;1.93;;;;;;;;;;4997674;28;20255;-60
2023/05/26 00:12:56;;;;;;;4.43;2.20;;;;;;;;;;4998692;28;20674;-60
2023/05/26 00:15:23;;;;;;;3.13;2.53;;;;;;;;;;5004255;28;20213;-60
2023/05/26 00:17:51;;;;;;;2.30;2.20;;;;;;;;;;4990827;28;20727;-59
2023/05/26 00:20:19;;;;;;;3.53;1.90;;;;;;;;;;4989250;28;20290;-59
2023/05/26 00:22:46;;;;;;;2.30;1.83;;;;;;;;;;5004636;28;20201;-59
2023/05/26 00:25:13;;;;;;;1.90;1.80;;;;;;;;;;5008999;28;20244;-59
2023/05/26 00:27:40;;;;;;;5.77;2.30;;;;;;;;;;5006714;28;20271;-59
2023/05/26 00:30:07;;;;;;;3.93;2.40;;;;;;;;;;5003726;28;20334;-59
2023/05/26 00:32:35;;;;;;;1.87;1.77;;;;;;;;;;5003133;28;20201;-60
2023/05/26 00:35:03;;;;;;;1.70;1.60;;;;;;;;;;4989650;28;20219;-59
2023/05/26 00:37:30;;;;;;;2.40;1.70;;;;;;;;;;4990947;28;20780;-60
2023/05/26 00:39:57;;;;;;;5.73;2.13;;;;;;;;;;5007507;28;20302;-60
2023/05/26 00:42:24;;;;;;;3.23;2.03;;;;;;;;;;5006890;28;20205;-60
2023/05/26 00:44:52;;;;;;;2.17;1.50;;;;;;;;;;5002767;28;20256;-59
2023/05/26 00:47:19;;;;;;;2.73;1.87;;;;;;;;;;5003095;28;20297;-59
2023/05/26 00:49:46;;;;;;;1.83;1.73;;;;;;;;;;5006437;28;20305;-60
2023/05/26 00:52:14;;;;;;;3.23;1.90;;;;;;;;;;4998972;28;20221;-60
2023/05/26 00:54:42;;;;;;;2.10;2.00;;;;;;;;;;5003150;28;20223;-60
2023/05/26 00:57:09;;;;;;;1.47;1.37;;;;;;;;;;5008963;28;20204;-59
2023/05/26 00:59:36;;;;;;;2.20;2.00;;;;;;;;;;5003800;28;20287;-59
2023/05/26 01:02:04;;;;;;;3.87;2.23;;;;;;;;;;4992371;28;20213;-59
2023/05/26 01:04:31;;;;;;;2.50;2.27;;;;;;;;;;5000429;28;20218;-59
2023/05/26 01:06:58;;;;;;;2.50;2.30;;;;;;;;;;4986873;28;20214;-60
2023/05/26 01:09:26;;;;;;;2.07;1.93;;;;;;;;;;4999374;28;20319;-60
2023/05/26 01:12:02;;;;;;;1.83;1.73;;;;;;;;;;4998094;28;20316;-60
2023/05/26 01:14:31;;;;;;;1.80;1.80;;;;;;;;;;4996529;28;20275;-60
2023/05/26 01:16:58;;;;;;;1.57;1.47;;;;;;;;;;4993542;28;20209;-60
2023/05/26 01:19:40;;;;;;;4.07;2.00;;;;;;;;;;5000594;28;20231;-60
2023/05/26 01:22:17;;;;;;;2.37;1.80;;;;;;;;;;4998173;28;20300;-60
2023/05/26 01:24:53;;;;;;;2.07;1.87;;;;;;;;;;5005288;28;20291;-59
2023/05/26 01:27:25;;;;;;;3.43;2.10;;;;;;;;;;4989374;28;20283;-59
2023/05/26 01:29:53;;;;;;;4.73;2.30;;;;;;;;;;4995023;28;20217;-60
2023/05/26 01:32:21;;;;;;;3.50;2.30;;;;;;;;;;5007171;28;20213;-59
2023/05/26 01:34:48;;;;;;;2.80;1.83;;;;;;;;;;4990296;28;20216;-60
2023/05/26 01:37:15;;;;;;;2.13;1.97;;;;;;;;;;4989102;28;20205;-60
2023/05/26 01:39:42;;;;;;;3.33;2.13;;;;;;;;;;4996498;28;20781;-60
2023/05/26 01:42:11;;;;;;;2.50;2.30;;;;;;;;;;5004422;28;20863;-60
2023/05/26 01:44:42;;;;;;;1.87;1.77;;;;;;;;;;5006128;28;20789;-60
2023/05/26 01:47:11;;;;;;;5.43;1.83;;;;;;;;;;4993102;28;20244;-60
2023/05/26 01:49:39;;;;;;;5.87;2.20;;;;;;;;;;5000264;28;20205;-60
2023/05/26 01:52:09;;;;;;;6.50;2.40;;;;;;;;;;4990761;28;20292;-60
2023/05/26 01:54:43;;;;;;;2.37;2.10;;;;;;;;;;4994658;28;20670;-60
2023/05/26 01:57:11;;;;;;;2.27;2.10;;;;;;;;;;4991122;28;20232;-60
2023/05/26 01:59:38;;;;;;;2.77;2.33;;;;;;;;;;5004290;28;20364;-60
2023/05/26 02:02:05;;;;;;;3.93;2.20;;;;;;;;;;5006532;28;20725;-60
2023/05/26 02:04:34;;;;;;;2.90;2.60;;;;;;;;;;5007458;28;20209;-59
2023/05/26 02:07:05;;;;;;;2.57;2.37;;;;;;;;;;5005451;28;20939;-60
2023/05/26 02:09:32;;;;;;;2.27;2.17;;;;;;;;;;5005835;28;20205;-60
2023/05/26 02:11:59;;;;;;;1.80;1.70;;;;;;;;;;5011690;28;20684;-60
2023/05/26 02:14:26;;;;;;;2.87;2.47;;;;;;;;;;5004072;28;20672;-60
2023/05/26 02:16:54;;;;;;;2.20;2.10;;;;;;;;;;5005317;28;20212;-59
2023/05/26 02:19:22;;;;;;;2.87;2.43;;;;;;;;;;5001612;28;20233;-60
2023/05/26 02:21:51;;;;;;;3.73;2.50;;;;;;;;;;4987891;28;20229;-59
2023/05/26 02:24:18;;;;;;;2.00;1.90;;;;;;;;;;5001393;28;20211;-60
2023/05/26 02:26:45;;;;;;;2.33;1.87;;;;;;;;;;4996274;28;20198;-60
2023/05/26 02:29:12;;;;;;;2.90;2.60;;;;;;;;;;4995998;28;20212;-59
2023/05/26 02:31:39;;;;;;;4.50;2.00;;;;;;;;;;4997428;28;20300;-60
2023/05/26 02:34:06;;;;;;;4.20;1.90;;;;;;;;;;5003314;28;20292;-60
2023/05/26 02:36:34;;;;;;;1.77;1.67;;;;;;;;;;4996642;28;20209;-60
2023/05/26 02:39:02;;;;;;;2.03;1.93;;;;;;;;;;5003735;28;20221;-59
2023/05/26 02:41:29;;;;;;;2.50;2.07;;;;;;;;;;5000689;28;20206;-60
2023/05/26 02:43:56;;;;;;;2.17;1.90;;;;;;;;;;4990675;28;20213;-59
2023/05/26 02:46:24;;;;;;;2.03;1.93;;;;;;;;;;4998054;28;20220;-60
2023/05/26 02:48:51;;;;;;;1.70;1.60;;;;;;;;;;5003373;28;20206;-60
2023/05/26 02:51:18;;;;;;;5.37;2.47;;;;;;;;;;4990261;28;20309;-60
2023/05/26 02:53:45;;;;;;;2.27;2.07;;;;;;;;;;5005396;28;20220;-59
2023/05/26 02:56:13;;;;;;;4.97;2.63;;;;;;;;;;4999541;28;20214;-59
2023/05/26 02:58:40;;;;;;;1.60;1.50;;;;;;;;;;5005667;28;20289;-60
2023/05/26 03:01:07;;;;;;;3.47;1.73;;;;;;;;;;4997205;28;20289;-60
2023/05/26 03:03:35;;;;;;;2.33;2.23;;;;;;;;;;4998078;28;20248;-59
2023/05/26 03:06:03;;;;;;;7.00;2.60;;;;;;;;;;5002117;28;20287;-59
2023/05/26 03:08:30;;;;;;;3.83;2.63;;;;;;;;;;4992797;28;20209;-60
2023/05/26 03:10:57;;;;;;;4.37;2.00;;;;;;;;;;5000944;28;20300;-59
2023/05/26 03:13:26;;;;;;;2.20;2.10;;;;;;;;;;5003272;28;20714;-60
2023/05/26 03:15:53;;;;;;;4.67;2.73;;;;;;;;;;4997270;28;20305;-60
2023/05/26 03:18:20;;;;;;;2.60;2.40;;;;;;;;;;4994492;28;20209;-59
2023/05/26 03:20:48;;;;;;;2.00;1.93;;;;;;;;;;5002737;28;20237;-58
2023/05/26 03:23:15;;;;;;;2.50;2.40;;;;;;;;;;5004632;28;20213;-58
2023/05/26 03:25:42;;;;;;;2.87;2.67;;;;;;;;;;5007097;28;20303;-59
2023/05/26 03:28:09;;;;;;;4.47;2.20;;;;;;;;;;4992199;28;20210;-58
2023/05/26 03:30:37;;;;;;;4.13;2.63;;;;;;;;;;4999656;28;20263;-59
2023/05/26 03:33:04;;;;;;;8.77;2.50;;;;;;;;;;4997392;28;20378;-60
2023/05/26 03:35:31;;;;;;;3.30;2.00;;;;;;;;;;4998850;28;20229;-59
2023/05/26 03:37:58;;;;;;;3.77;2.27;;;;;;;;;;5012137;28;20300;-60
2023/05/26 03:40:25;;;;;;;2.40;2.20;;;;;;;;;;5003121;28;20574;-59
2023/05/26 03:42:52;;;;;;;2.60;2.40;;;;;;;;;;5007775;28;20208;-59
2023/05/26 03:45:20;;;;;;;5.57;2.47;;;;;;;;;;5006981;28;20236;-59
2023/05/26 03:47:48;;;;;;;4.07;2.63;;;;;;;;;;5008916;28;20217;-59
2023/05/26 03:50:15;;;;;;;4.57;2.60;;;;;;;;;;4994941;28;20206;-59
2023/05/26 03:52:42;;;;;;;4.93;2.33;;;;;;;;;;5004190;28;20610;-60
2023/05/26 03:55:10;;;;;;;7.57;2.63;;;;;;;;;;5007240;28;20267;-59
2023/05/26 03:57:38;;;;;;;2.50;2.40;;;;;;;;;;5008662;28;20201;-59
2023/05/26 04:00:07;;;;;;;2.53;2.37;;;;;;;;;;5007216;28;20287;-59
2023/05/26 04:02:34;;;;;;;5.70;2.90;;;;;;;;;;5003270;28;20224;-59
2023/05/26 04:05:02;;;;;;;2.60;2.40;;;;;;;;;;5005410;28;20202;-60
2023/05/26 04:07:29;;;;;;;4.57;2.50;;;;;;;;;;5002213;28;20664;-59
2023/05/26 04:09:56;;;;;;;3.10;2.57;;;;;;;;;;4993751;28;20248;-59
2023/05/26 04:12:23;;;;;;;4.10;2.30;;;;;;;;;;5007380;28;20209;-59
2023/05/26 04:14:50;;;;;;;3.33;2.80;;;;;;;;;;5008267;28;20355;-59
2023/05/26 04:17:17;;;;;;;2.83;2.63;;;;;;;;;;5008245;28;20604;-59
2023/05/26 04:19:44;;;;;;;2.53;2.43;;;;;;;;;;5008544;28;20319;-60
2023/05/26 04:22:13;;;;;;;1.90;1.80;;;;;;;;;;5006857;28;20751;-60
2023/05/26 04:24:40;;;;;;;3.53;3.10;;;;;;;;;;5009376;28;20249;-60
2023/05/26 04:27:09;;;;;;;4.93;2.40;;;;;;;;;;4991353;28;20664;-59
2023/05/26 04:29:36;;;;;;;3.70;2.90;;;;;;;;;;5002900;28;20284;-59
2023/05/26 04:32:03;;;;;;;2.67;2.47;;;;;;;;;;5010568;28;20224;-60
2023/05/26 04:34:30;;;;;;;3.10;2.87;;;;;;;;;;5006719;28;20232;-59
2023/05/26 04:37:03;;;;;;;3.53;2.50;;;;;;;;;;5008277;28;20217;-59
2023/05/26 04:39:32;;;;;;;2.53;2.33;;;;;;;;;;5000294;28;20311;-59
2023/05/26 04:41:59;;;;;;;2.60;2.37;;;;;;;;;;5005729;28;20205;-59
2023/05/26 04:44:27;;;;;;;2.90;2.60;;;;;;;;;;5007980;28;20332;-59
2023/05/26 04:46:54;;;;;;;3.97;2.40;;;;;;;;;;5007461;28;20267;-60
2023/05/26 04:49:22;;;;;;;4.10;2.60;;;;;;;;;;4993338;28;20206;-59
2023/05/26 04:51:50;;;;;;;3.20;2.80;;;;;;;;;;5008039;28;20204;-60
2023/05/26 04:54:17;;;;;;;3.37;1.53;;;;;;;;;;5005931;28;20767;-60
2023/05/26 04:56:45;;;;;;;3.63;2.67;;;;;;;;;;4996467;28;20272;-59
2023/05/26 04:59:12;;;;;;;5.40;2.97;;;;;;;;;;5002032;28;20217;-59
2023/05/26 05:01:39;;;;;;;2.70;2.47;;;;;;;;;;4998787;28;20237;-59
2023/05/26 05:04:07;;;;;;;2.80;2.53;;;;;;;;;;4995662;28;20209;-59
2023/05/26 05:06:34;;;;;;;2.73;2.40;;;;;;;;;;5006967;28;20224;-59
2023/05/26 05:09:01;;;;;;;5.00;2.60;;;;;;;;;;5007021;28;20422;-60
2023/05/26 05:11:28;;;;;;;6.00;2.53;;;;;;;;;;4995193;28;20217;-59
2023/05/26 05:13:56;;;;;;;3.83;2.53;;;;;;;;;;4997864;28;20572;-59
2023/05/26 05:16:23;;;;;;;3.30;2.33;;;;;;;;;;4992091;28;20209;-59
2023/05/26 05:18:51;;;;;;;2.73;2.53;;;;;;;;;;5006309;28;20238;-59
2023/05/26 05:21:18;;;;;;;2.43;2.27;;;;;;;;;;5004431;28;20264;-59
2023/05/26 05:23:45;;;;;;;2.53;2.33;;;;;;;;;;4985806;28;20221;-60
2023/05/26 05:26:12;;;;;;;2.77;2.57;;;;;;;;;;5004974;28;20291;-59
2023/05/26 05:28:39;;;;;;;2.95;2.63;;;;;;;;;;5002608;28;20213;-59
2023/05/26 05:31:08;;;;;;;3.23;1.90;;;;;;;;;;4992546;28;20223;-61
2023/05/26 05:33:37;;;;;;;3.03;2.33;;;;;;;;;;4995771;28;20205;-59
2023/05/26 05:36:05;;;;;;;3.08;2.20;;;;;;;;;;4997027;28;20211;-61
2023/05/26 05:38:32;;;;;;;4.53;3.10;;;;;;;;;;4991390;28;20596;-60
2023/05/26 05:40:59;;;;;;;5.05;2.88;;;;;;;;;;4989734;28;20234;-60
2023/05/26 05:43:27;;;;;;;4.15;2.88;;;;;;;;;;5000585;28;20201;-60
2023/05/26 05:45:54;;;;;;;6.15;2.70;;;;;;;;;;5007584;28;20205;-60
2023/05/26 05:48:23;;;;;;;3.03;1.73;;;;;;;;;;5006757;28;20221;-60
2023/05/26 05:50:50;;;;;;;3.05;1.48;;;;;;;;;;5003348;28;20645;-58
2023/05/26 05:53:17;;;;;;;3.60;2.42;;;;;;;;;;4995352;28;20217;-60
2023/05/26 05:55:46;;;;;;;4.70;3.10;;;;;;;;;;4987942;28;20908;-58
2023/05/26 05:58:13;;;;;;;9.25;2.60;;;;;;;;;;4995683;28;20296;-60
2023/05/26 06:00:40;;;;;;;2.22;1.90;;;;;;;;;;5007042;28;20233;-60
2023/05/26 06:03:07;;;;;;;7.05;2.30;;;;;;;;;;5006883;28;20217;-58
2023/05/26 06:05:35;;;;;;;2.50;2.40;;;;;;;;;;5004496;28;20209;-57
2023/05/26 06:08:02;;;;;;;5.65;2.83;;;;;;;;;;5007000;28;20292;-59
2023/05/26 06:10:29;;;;;;;7.40;2.97;;;;;;;;;;5001873;28;20197;-58
2023/05/26 06:12:57;;;;;;;9.23;3.17;;;;;;;;;;5004852;28;20220;-60
2023/05/26 06:15:24;;;;;;;4.68;2.70;;;;;;;;;;4996319;28;20241;-59
2023/05/26 06:17:51;;;;;;;5.65;2.75;;;;;;;;;;4987352;28;20213;-57
2023/05/26 06:20:18;;;;;;;2.85;1.83;;;;;;;;;;4989725;28;20475;-56
2023/05/26 06:22:46;;;;;;;2.35;2.17;;;;;;;;;;4988205;28;20209;-56
2023/05/26 06:25:13;;;;;;;2.33;1.98;;;;;;;;;;4985701;28;20308;-57
2023/05/26 06:27:41;;;;;;;2.20;1.90;;;;;;;;;;4986524;28;20920;-56
2023/05/26 06:30:08;;;;;;;8.10;2.30;;;;;;;;;;4986366;28;20305;-57
2023/05/26 06:32:35;;;;;;;6.05;2.72;;;;;;;;;;4986389;28;20598;-57
2023/05/26 06:35:02;;;;;;;5.43;2.78;;;;;;;;;;4986340;28;20283;-58
2023/05/26 06:37:29;;;;;;;5.35;2.47;;;;;;;;;;4988994;28;20551;-59
2023/05/26 06:39:58;;;;;;;3.28;2.30;;;;;;;;;;4990966;28;20299;-57
2023/05/26 06:42:25;;;;;;;5.90;2.28;;;;;;;;;;5004096;28;20220;-56
2023/05/26 06:44:52;;;;;;;2.17;1.92;;;;;;;;;;5010564;28;20730;-59
2023/05/26 06:47:23;;;;;;;2.30;2.03;;;;;;;;;;5010137;28;20698;-57
2023/05/26 06:49:50;;;;;;;4.78;2.38;;;;;;;;;;5010137;28;20209;-57
2023/05/26 06:52:17;;;;;;;3.28;2.30;;;;;;;;;;5010396;28;20743;-57
2023/05/26 06:54:44;;;;;;;9.43;1.25;;;;;;;;;;5010156;28;20217;-57
2023/05/26 06:57:13;;;;;;;3.75;1.92;;;;;;;;;;5010022;28;20267;-56
2023/05/26 06:59:40;;;;;;;5.30;2.00;;;;;;;;;;5009693;28;20263;-57
2023/05/26 07:02:07;;;;;;;1.70;1.55;;;;;;;;;;5009413;28;20266;-57
2023/05/26 07:04:35;;;;;;;3.30;1.67;;;;;;;;;;5009677;28;20622;-57
2023/05/26 07:07:02;;;;;;;4.50;2.83;;;;;;;;;;5009204;28;20259;-57
2023/05/26 07:09:29;;;;;;;6.53;2.53;;;;;;;;;;5009207;28;20778;-57
2023/05/26 07:11:56;;;;;;;2.50;2.30;;;;;;;;;;5009288;28;20292;-57
2023/05/26 07:14:24;;;;;;;2.63;1.65;;;;;;;;;;5009821;28;20616;-57
2023/05/26 07:16:51;;;;;;;6.97;2.67;;;;;;;;;;5009933;28;20238;-57
2023/05/26 07:19:18;;;;;;;4.55;1.80;;;;;;;;;;5009896;28;20212;-57
2023/05/26 07:21:45;;;;;;;4.93;1.83;;;;;;;;;;5005867;28;20237;-57
2023/05/26 07:24:12;;;;;;;2.20;1.98;;;;;;;;;;5007319;28;20278;-57
2023/05/26 07:26:39;;;;;;;7.65;2.97;;;;;;;;;;5009264;28;20325;-57
2023/05/26 07:29:06;;;;;;;1.40;1.30;;;;;;;;;;5008366;28;20271;-58
2023/05/26 07:31:35;;;;;;;3.65;1.85;;;;;;;;;;5009339;28;20208;-57
2023/05/26 07:34:02;;;;;;;6.05;2.45;;;;;;;;;;5009235;28;20216;-57
2023/05/26 07:36:29;;;;;;;2.03;1.77;;;;;;;;;;5001952;28;20216;-57
2023/05/26 07:38:56;;;;;;;7.53;2.60;;;;;;;;;;5006551;28;20271;-57
2023/05/26 07:41:23;;;;;;;2.88;1.65;;;;;;;;;;5007979;28;20232;-57
2023/05/26 07:43:50;;;;;;;3.10;2.38;;;;;;;;;;5009360;28;20730;-57
2023/05/26 07:46:18;;;;;;;3.17;2.05;;;;;;;;;;5009177;28;20214;-56
2023/05/26 07:48:46;;;;;;;2.30;2.20;;;;;;;;;;5008176;28;20236;-57
2023/05/26 07:51:13;;;;;;;3.35;2.20;;;;;;;;;;5009052;28;20239;-57
2023/05/26 07:53:40;;;;;;;3.65;1.75;;;;;;;;;;5009024;28;20209;-57
2023/05/26 07:56:07;;;;;;;5.78;1.55;;;;;;;;;;5007198;28;20675;-57
2023/05/26 07:58:35;;;;;;;1.88;1.65;;;;;;;;;;5008424;28;20271;-57
2023/05/26 08:01:02;;;;;;;4.88;2.45;;;;;;;;;;5008270;28;20229;-57
2023/05/26 08:03:29;;;;;;;6.25;2.25;;;;;;;;;;5008423;28;20240;-57
2023/05/26 08:05:58;;;;;;;8.00;2.63;;;;;;;;;;4999575;28;20307;-57
2023/05/26 08:08:25;;;;;;;2.33;1.92;;;;;;;;;;4989071;28;20213;-57
2023/05/26 08:10:52;;;;;;;6.70;2.40;;;;;;;;;;5003838;28;20216;-57
2023/05/26 08:13:19;;;;;;;3.75;2.22;;;;;;;;;;5008574;28;20213;-57
2023/05/26 08:15:46;;;;;;;3.67;2.10;;;;;;;;;;5007802;28;20213;-57
2023/05/26 08:18:13;;;;;;;3.03;2.28;;;;;;;;;;5008312;28;20213;-57
2023/05/26 08:20:40;;;;;;;4.22;2.03;;;;;;;;;;5007929;28;20232;-59
2023/05/26 08:23:08;;;;;;;3.38;2.25;;;;;;;;;;5008104;28;20209;-57
2023/05/26 08:25:35;;;;;;;3.15;2.65;;;;;;;;;;5007836;28;20318;-57
2023/05/26 08:28:02;;;;;;;3.97;2.38;;;;;;;;;;5008491;28;20209;-57
2023/05/26 08:30:29;;;;;;;2.92;2.60;;;;;;;;;;5007966;28;20640;-57
2023/05/26 08:32:56;;;;;;;6.10;2.40;;;;;;;;;;5006872;28;20197;-57
2023/05/26 08:35:23;;;;;;;4.35;1.92;;;;;;;;;;5007985;28;20267;-57
2023/05/26 08:37:50;;;;;;;5.05;2.40;;;;;;;;;;5007652;28;20295;-57
2023/05/26 08:40:19;;;;;;;3.92;2.33;;;;;;;;;;5004658;28;20198;-57
2023/05/26 08:42:48;;;;;;;5.68;2.35;;;;;;;;;;5006667;28;20213;-58
2023/05/26 08:45:15;;;;;;;6.53;2.08;;;;;;;;;;5003032;28;20210;-57
2023/05/26 08:47:43;;;;;;;2.58;2.38;;;;;;;;;;4987078;28;20715;-57
2023/05/26 08:50:10;;;;;;;2.88;1.75;;;;;;;;;;4988040;28;20297;-57
2023/05/26 08:52:38;;;;;;;3.80;2.22;;;;;;;;;;4987254;28;20210;-58
2023/05/26 08:55:07;;;;;;;3.20;2.38;;;;;;;;;;4987424;28;20304;-58
2023/05/26 08:57:36;;;;;;;4.38;2.33;;;;;;;;;;4986828;28;20264;-58
2023/05/26 09:00:04;;;;;;;3.22;1.50;;;;;;;;;;4983345;28;20216;-56
2023/05/26 09:02:31;;;;;;;5.13;2.45;;;;;;;;;;4995765;28;20324;-58
2023/05/26 09:04:59;;;;;;;3.95;2.30;;;;;;;;;;5001300;28;21146;-58
2023/05/26 09:07:26;;;;;;;4.00;1.75;;;;;;;;;;4993676;28;20201;-61
2023/05/26 09:09:53;;;;;;;6.68;2.47;;;;;;;;;;5006456;28;20201;-58
2023/05/26 09:12:22;;;;;;;4.22;2.40;;;;;;;;;;5007238;28;20648;-57
2023/05/26 09:14:50;;;;;;;3.35;2.38;;;;;;;;;;5005401;28;20217;-58
2023/05/26 09:17:17;;;;;;;3.10;1.90;;;;;;;;;;5004055;28;20227;-58
2023/05/26 09:19:44;;;;;;;7.10;1.35;;;;;;;;;;5008007;28;20247;-58
2023/05/26 09:22:12;;;;;;;3.90;2.22;;;;;;;;;;5007770;28;20237;-58
2023/05/26 09:24:45;;;;;;;2.33;2.13;;;;;;;;;;5007830;28;20217;-58
2023/05/26 09:27:20;;;;;;;3.10;2.08;;;;;;;;;;5007744;28;20220;-58
2023/05/26 09:29:52;;;;;;;8.65;2.83;;;;;;;;;;5008004;28;20707;-58
2023/05/26 09:32:19;;;;;;;3.90;2.20;;;;;;;;;;5008168;28;20213;-59
2023/05/26 09:34:46;;;;;;;2.33;2.20;;;;;;;;;;5007890;28;20221;-58
2023/05/26 09:37:13;;;;;;;4.70;1.60;;;;;;;;;;5007266;28;20221;-59
2023/05/26 09:39:40;;;;;;;2.13;1.88;;;;;;;;;;5007708;28;20212;-59
2023/05/26 09:42:09;;;;;;;7.72;2.13;;;;;;;;;;5006747;28;20237;-59
2023/05/26 09:44:36;;;;;;;6.18;1.98;;;;;;;;;;5007161;28;20271;-59
2023/05/26 09:47:08;;;;;;;1.73;1.30;;;;;;;;;;5007198;28;20215;-59
2023/05/26 09:49:38;;;;;;;3.78;1.77;;;;;;;;;;5007309;28;20209;-59
2023/05/26 09:52:05;;;;;;;3.90;2.10;;;;;;;;;;5007198;28;20307;-62
2023/05/26 09:54:32;;;;;;;6.18;2.53;;;;;;;;;;5007269;28;20216;-59
2023/05/26 09:57:01;;;;;;;4.93;2.15;;;;;;;;;;5007150;28;20677;-59
2023/05/26 09:59:32;;;;;;;3.50;1.58;;;;;;;;;;5007537;28;20209;-59
2023/05/26 10:02:00;;;;;;;4.80;1.70;;;;;;;;;;5007639;28;20601;-59
2023/05/26 10:04:29;;;;;;;2.88;1.75;;;;;;;;;;5004962;28;20360;-58
2023/05/26 10:06:57;;;;;;;2.45;1.98;;;;;;;;;;4999343;28;20236;-58
2023/05/26 10:09:24;;;;;;;1.60;1.52;;;;;;;;;;5002059;28;20653;-58
2023/05/26 10:11:52;;;;;;;3.70;2.05;;;;;;;;;;5003049;28;20766;-59
2023/05/26 10:14:19;;;;;;;1.58;1.45;;;;;;;;;;5013797;28;20244;-57
2023/05/26 10:16:46;;;;;;;2.13;1.98;;;;;;;;;;5006929;28;20628;-58
2023/05/26 10:19:14;;;;;;;2.83;1.40;;;;;;;;;;5000127;28;20212;-58
2023/05/26 10:21:45;;;;;;;2.55;1.27;;;;;;;;;;5007285;28;20264;-58
2023/05/26 10:24:15;;;;;;;4.15;1.73;;;;;;;;;;4993568;28;20240;-58
2023/05/26 10:26:48;;;;;;;5.20;2.58;;;;;;;;;;5003627;28;20713;-58
2023/05/26 10:29:18;;;;;;;6.38;2.17;;;;;;;;;;5013278;28;20212;-58
2023/05/26 10:31:45;;;;;;;6.43;2.15;;;;;;;;;;5003282;28;20225;-58
2023/05/26 10:34:13;;;;;;;3.15;2.22;;;;;;;;;;4994175;28;20209;-58
2023/05/26 10:36:41;;;;;;;3.55;2.60;;;;;;;;;;5002497;28;20365;-58
2023/05/26 10:39:12;;;;;;;2.03;1.88;;;;;;;;;;5032635;28;20208;-59
2023/05/26 10:41:39;;;;;;;4.35;2.58;;;;;;;;;;5024578;28;20240;-58
2023/05/26 10:44:06;;;;;;;3.15;1.90;;;;;;;;;;5010263;28;20283;-59
2023/05/26 10:46:38;;;;;;;3.92;2.30;;;;;;;;;;4999863;28;20268;-59
2023/05/26 10:49:05;;;;;;;5.15;2.30;;;;;;;;;;5008353;28;20212;-58
2023/05/26 10:51:32;;;;;;;2.70;1.83;;;;;;;;;;5025601;28;20259;-59
2023/05/26 10:54:00;;;;;;;3.63;1.92;;;;;;;;;;5014779;28;20204;-58
2023/05/26 10:56:36;;;;;;;2.78;2.30;;;;;;;;;;5032002;28;20212;-58
2023/05/26 10:59:04;;;;;;;2.50;1.92;;;;;;;;;;5010941;28;20656;-58
2023/05/26 11:01:32;;;;;;;1.98;1.85;;;;;;;;;;5001286;28;20229;-58
2023/05/26 11:04:08;;;;;;;5.82;2.70;;;;;;;;;;5004755;28;20217;-58
2023/05/26 11:06:36;;;;;;;2.38;2.22;;;;;;;;;;5005603;28;20271;-58
2023/05/26 11:09:08;;;;;;;4.40;2.30;;;;;;;;;;4998545;28;20206;-58
2023/05/26 11:11:38;;;;;;;1.70;1.70;;;;;;;;;;5005618;28;20392;-58
2023/05/26 11:14:06;;;;;;;9.50;2.35;;;;;;;;;;5003098;28;20212;-58
2023/05/26 11:16:34;;;;;;;3.38;1.92;;;;;;;;;;5003263;28;20287;-58
2023/05/26 11:19:03;;;;;;;2.85;2.20;;;;;;;;;;4991723;28;20300;-58
2023/05/26 11:21:31;;;;;;;1.80;1.70;;;;;;;;;;5000250;28;20240;-58
2023/05/26 11:23:59;;;;;;;6.95;1.85;;;;;;;;;;5010458;28;20220;-58
2023/05/26 11:26:27;;;;;;;7.07;2.28;;;;;;;;;;5007675;28;20607;-57
2023/05/26 11:28:56;;;;;;;5.78;1.90;;;;;;;;;;5004707;28;20213;-57
2023/05/26 11:31:25;;;;;;;4.50;2.55;;;;;;;;;;5005524;28;20337;-58
2023/05/26 11:33:53;;;;;;;4.47;2.10;;;;;;;;;;5005638;28;20212;-59
2023/05/26 11:36:21;;;;;;;1.63;1.45;;;;;;;;;;5006042;28;20319;-58
2023/05/26 11:38:49;;;;;;;1.55;1.42;;;;;;;;;;5007709;28;20220;-57
2023/05/26 11:41:16;;;;;;;1.35;1.30;;;;;;;;;;5006031;28;20212;-58
2023/05/26 11:43:45;;;;;;;5.75;2.08;;;;;;;;;;5012919;28;20316;-58
2023/05/26 11:46:15;;;;;;;2.58;2.38;;;;;;;;;;5001826;28;20213;-57
2023/05/26 11:48:42;;;;;;;2.03;1.85;;;;;;;;;;4998445;28;20221;-57
2023/05/26 11:51:10;;;;;;;3.33;1.73;;;;;;;;;;5002040;28;20212;-58
2023/05/26 11:53:38;;;;;;;1.95;1.85;;;;;;;;;;4999764;28;20211;-57
2023/05/26 11:56:06;;;;;;;5.63;2.00;;;;;;;;;;5001162;28;20244;-58
2023/05/26 11:58:34;;;;;;;3.80;1.98;;;;;;;;;;5006819;28;20323;-58
2023/05/26 12:01:02;;;;;;;2.60;1.10;;;;;;;;;;5003472;28;20274;-57
2023/05/26 12:03:33;;;;;;;6.38;1.63;;;;;;;;;;5013888;28;20229;-58
2023/05/26 12:06:07;;;;;;;2.22;1.63;;;;;;;;;;5005759;28;20213;-58
2023/05/26 12:08:43;;;;;;;2.42;1.65;;;;;;;;;;5005443;28;20671;-58
2023/05/26 12:11:13;;;;;;;3.15;2.00;;;;;;;;;;5005724;28;20212;-57
2023/05/26 12:13:40;;;;;;;4.85;2.00;;;;;;;;;;5007346;28;20216;-58
2023/05/26 12:16:18;;;;;;;1.98;1.70;;;;;;;;;;5005498;28;20224;-57
2023/05/26 12:18:46;;;;;;;1.55;1.45;;;;;;;;;;5002903;28;20648;-58
2023/05/26 12:21:13;;;;;;;1.35;1.27;;;;;;;;;;5016440;28;20718;-59
2023/05/26 12:23:41;;;;;;;4.15;2.08;;;;;;;;;;5014655;28;20235;-59
2023/05/26 12:26:14;;;;;;;2.53;1.45;;;;;;;;;;4994932;28;20287;-58
2023/05/26 12:28:41;;;;;;;6.65;1.58;;;;;;;;;;5008650;28;20304;-58
2023/05/26 12:31:08;;;;;;;4.60;1.92;;;;;;;;;;5009484;28;20231;-59
2023/05/26 12:33:35;;;;;;;2.65;1.70;;;;;;;;;;4989927;28;20264;-58
2023/05/26 12:36:04;;;;;;;4.95;2.55;;;;;;;;;;4995828;28;20275;-58
2023/05/26 12:38:40;;;;;;;5.43;2.15;;;;;;;;;;4997971;28;20210;-58
2023/05/26 12:41:07;;;;;;;6.10;1.70;;;;;;;;;;4995212;28;20219;-58
2023/05/26 12:43:34;;;;;;;5.22;1.83;;;;;;;;;;5007765;28;20229;-57
2023/05/26 12:46:02;;;;;;;2.47;1.20;;;;;;;;;;5005200;28;20232;-58
2023/05/26 12:48:29;;;;;;;1.73;1.63;;;;;;;;;;5000494;28;20209;-57
2023/05/26 12:50:56;;;;;;;2.78;1.85;;;;;;;;;;5000274;28;20943;-58
2023/05/26 12:53:25;;;;;;;2.35;1.60;;;;;;;;;;4988346;28;20217;-58
2023/05/26 12:55:52;;;;;;;3.17;1.80;;;;;;;;;;4995091;28;20217;-57
2023/05/26 12:58:21;;;;;;;5.07;1.92;;;;;;;;;;4988121;28;20979;-58
2023/05/26 13:00:48;;;;;;;2.90;1.17;;;;;;;;;;4989530;28;20217;-59
2023/05/26 13:03:15;;;;;;;2.22;1.38;;;;;;;;;;4987865;28;20230;-58
2023/05/26 13:05:43;;;;;;;2.65;1.90;;;;;;;;;;4991135;28;20209;-58
2023/05/26 13:08:10;;;;;;;1.58;1.50;;;;;;;;;;5004626;28;20205;-57
2023/05/26 13:10:38;;;;;;;5.07;2.05;;;;;;;;;;5003042;28;20221;-58
2023/05/26 13:13:06;;;;;;;5.07;2.13;;;;;;;;;;4999646;28;20204;-58
2023/05/26 13:15:33;;;;;;;4.63;2.00;;;;;;;;;;4995396;28;20210;-58
2023/05/26 13:18:00;;;;;;;3.85;2.17;;;;;;;;;;4990162;28;20562;-58
2023/05/26 13:20:27;;;;;;;4.75;1.85;;;;;;;;;;4997907;28;20228;-58
2023/05/26 13:22:54;;;;;;;5.15;1.77;;;;;;;;;;5002539;28;20228;-59
2023/05/26 13:25:21;;;;;;;4.05;1.58;;;;;;;;;;5000963;28;20240;-59
2023/05/26 13:27:50;;;;;;;2.50;2.30;;;;;;;;;;4985877;28;20210;-57
2023/05/26 13:30:17;;;;;;;6.68;1.50;;;;;;;;;;4994727;28;20213;-59
2023/05/26 13:32:44;;;;;;;3.72;1.73;;;;;;;;;;4982063;28;20209;-59
2023/05/26 13:35:11;;;;;;;2.90;1.83;;;;;;;;;;4980334;28;20217;-58
2023/05/26 13:37:38;;;;;;;3.60;1.60;;;;;;;;;;4985347;28;20486;-60
2023/05/26 13:40:06;;;;;;;3.92;1.88;;;;;;;;;;4978109;28;20221;-60
2023/05/26 13:42:34;;;;;;;5.65;2.03;;;;;;;;;;4978141;28;20324;-58
2023/05/26 13:45:03;;;;;;;2.15;1.63;;;;;;;;;;4986587;28;20304;-59
2023/05/26 13:47:30;;;;;;;3.67;1.55;;;;;;;;;;4979989;28;20242;-58
2023/05/26 13:49:57;;;;;;;2.58;1.58;;;;;;;;;;4973434;28;20214;-58
2023/05/26 13:52:24;;;;;;;2.08;1.90;;;;;;;;;;4974278;28;20206;-57
2023/05/26 13:54:51;;;;;;;5.00;1.65;;;;;;;;;;4975258;28;20214;-57
2023/05/26 13:57:18;;;;;;;4.78;1.48;;;;;;;;;;4980984;28;20221;-58
2023/05/26 13:59:45;;;;;;;5.10;1.75;;;;;;;;;;4974253;28;20206;-58
2023/05/26 14:02:14;;;;;;;1.27;1.27;;;;;;;;;;4981392;28;20784;-59
2023/05/26 14:04:41;;;;;;;4.43;1.70;;;;;;;;;;4983256;28;20222;-60
2023/05/26 14:07:08;;;;;;;2.90;1.83;;;;;;;;;;4980774;28;20264;-60
2023/05/26 14:09:35;;;;;;;2.70;0.93;;;;;;;;;;4978467;28;20212;-60
2023/05/26 14:12:02;;;;;;;4.78;1.52;;;;;;;;;;4979187;28;20214;-60
2023/05/26 14:14:30;;;;;;;1.73;1.50;;;;;;;;;;4983378;28;20293;-61
2023/05/26 14:16:58;;;;;;;1.63;1.05;;;;;;;;;;4983288;28;20305;-61
2023/05/26 14:19:26;;;;;;;5.18;1.67;;;;;;;;;;4977247;28;20743;-61
2023/05/26 14:21:54;;;;;;;2.03;1.48;;;;;;;;;;4981634;28;20233;-60
2023/05/26 14:24:21;;;;;;;2.25;1.35;;;;;;;;;;4984157;28;20295;-61
2023/05/26 14:26:48;;;;;;;7.25;1.63;;;;;;;;;;4988338;28;20332;-61
2023/05/26 14:29:15;;;;;;;2.35;1.33;;;;;;;;;;5001089;28;20761;-61
2023/05/26 14:31:42;;;;;;;4.65;1.67;;;;;;;;;;4999119;28;20316;-61
2023/05/26 14:34:09;;;;;;;4.05;1.95;;;;;;;;;;5000250;28;20217;-60
2023/05/26 14:36:37;;;;;;;2.28;1.05;;;;;;;;;;4992609;28;20214;-61
2023/05/26 14:42:07;;;;;;;7.68;1.98;;;;;;;;;;4989383;28;20209;-59
2023/05/26 14:44:34;;;;;;;3.10;1.60;;;;;;;;;;4994086;28;20755;-58
2023/05/26 14:47:01;;;;;;;4.60;1.73;;;;;;;;;;5005741;28;20314;-58
2023/05/26 14:49:29;;;;;;;4.63;1.63;;;;;;;;;;5005699;28;20668;-59